createdAt,value
2022-10-03T00:00:42.450Z,0
2022-10-03T00:01:58.641Z,0
2022-10-03T00:03:14.463Z,0
2022-10-03T00:04:30.664Z,0
2022-10-03T00:05:47.188Z,0
2022-10-03T00:07:02.411Z,0
2022-10-03T00:08:18.582Z,0
2022-10-03T00:09:34.791Z,0
2022-10-03T00:10:50.977Z,0
2022-10-03T00:12:06.799Z,0
2022-10-03T00:13:23.008Z,0
2022-10-03T00:14:39.542Z,0
2022-10-03T00:15:55.370Z,0
2022-10-03T00:17:11.921Z,0
2022-10-03T00:18:28.097Z,0
2022-10-03T00:19:43.937Z,0
2022-10-03T00:21:00.475Z,0
2022-10-03T00:22:16.668Z,0
2022-10-03T00:23:31.877Z,0
2022-10-03T00:24:48.075Z,0
2022-10-03T00:26:04.249Z,0
2022-10-03T00:27:20.099Z,0
2022-10-03T00:28:36.261Z,0
2022-10-03T00:29:52.452Z,0
2022-10-03T00:31:08.643Z,0
2022-10-03T00:32:24.830Z,0
2022-10-03T00:33:41.022Z,0
2022-10-03T00:34:57.225Z,0
2022-10-03T00:36:13.414Z,0
2022-10-03T00:37:29.599Z,0
2022-10-03T00:38:45.779Z,0
2022-10-03T00:40:00.998Z,0
2022-10-03T00:41:17.183Z,0
2022-10-03T00:42:33.374Z,0
2022-10-03T00:43:49.547Z,0
2022-10-03T00:45:05.739Z,0
2022-10-03T00:46:21.929Z,0
2022-10-03T00:47:38.119Z,0
2022-10-03T00:48:54.314Z,0
2022-10-03T00:50:10.499Z,0
2022-10-03T00:51:26.696Z,0
2022-10-03T00:52:42.867Z,0
2022-10-03T00:53:59.074Z,0
2022-10-03T00:55:15.264Z,0
2022-10-03T00:56:30.460Z,0
2022-10-03T00:57:46.659Z,0
2022-10-03T00:59:02.847Z,0
2022-10-03T01:00:19.027Z,0
2022-10-03T01:01:35.218Z,0
2022-10-03T01:02:51.407Z,0
2022-10-03T01:04:07.587Z,0
2022-10-03T01:05:23.775Z,0
2022-10-03T01:06:39.973Z,0
2022-10-03T01:07:56.154Z,0
2022-10-03T01:09:12.343Z,0
2022-10-03T01:10:28.542Z,0
2022-10-03T01:11:44.734Z,0
2022-10-03T01:12:59.933Z,0
2022-10-03T01:14:16.118Z,0
2022-10-03T01:15:32.306Z,0
2022-10-03T01:16:48.504Z,0
2022-10-03T01:18:04.681Z,0
2022-10-03T01:19:20.885Z,0
2022-10-03T01:20:37.062Z,0
2022-10-03T01:21:53.255Z,0
2022-10-03T01:23:09.448Z,0
2022-10-03T01:24:25.619Z,0
2022-10-03T01:25:41.822Z,0
2022-10-03T01:26:58.019Z,0
2022-10-03T01:28:14.194Z,0
2022-10-03T01:29:29.403Z,0
2022-10-03T01:30:45.598Z,0
2022-10-03T01:32:01.790Z,0
2022-10-03T01:33:17.965Z,0
2022-10-03T01:34:34.161Z,0
2022-10-03T01:35:50.340Z,0
2022-10-03T01:37:06.533Z,0
2022-10-03T01:38:22.722Z,0
2022-10-03T01:39:38.908Z,0
2022-10-03T01:40:55.106Z,0
2022-10-03T01:42:11.291Z,0
2022-10-03T01:43:27.488Z,0
2022-10-03T01:44:43.668Z,0
2022-10-03T01:45:58.870Z,0
2022-10-03T01:47:15.067Z,0
2022-10-03T01:48:31.266Z,0
2022-10-03T01:49:47.456Z,0
2022-10-03T01:51:03.623Z,0
2022-10-03T01:52:19.829Z,0
2022-10-03T01:53:36.011Z,0
2022-10-03T01:54:52.192Z,0
2022-10-03T01:56:08.380Z,0
2022-10-03T01:57:24.556Z,0
2022-10-03T01:58:40.746Z,0
2022-10-03T01:59:56.955Z,0
2022-10-03T02:01:13.127Z,0
2022-10-03T02:02:28.347Z,0
2022-10-03T02:03:44.527Z,0
2022-10-03T02:05:00.721Z,0
2022-10-03T02:06:16.892Z,0
2022-10-03T02:07:33.087Z,0
2022-10-03T02:08:49.277Z,0
2022-10-03T02:10:05.455Z,0
2022-10-03T02:11:21.636Z,0
2022-10-03T02:12:37.832Z,0
2022-10-03T02:13:54.001Z,0
2022-10-03T02:15:10.212Z,0
2022-10-03T02:16:26.404Z,0
2022-10-03T02:17:42.587Z,0
2022-10-03T02:18:57.792Z,0
2022-10-03T02:20:13.969Z,0
2022-10-03T02:21:30.149Z,0
2022-10-03T02:22:46.322Z,0
2022-10-03T02:24:02.531Z,0
2022-10-03T02:25:18.719Z,0
2022-10-03T02:26:34.906Z,0
2022-10-03T02:27:51.101Z,0
2022-10-03T02:29:07.264Z,0
2022-10-03T02:30:23.483Z,0
2022-10-03T02:31:39.659Z,0
2022-10-03T02:32:55.847Z,0
2022-10-03T02:34:12.029Z,0
2022-10-03T02:35:27.220Z,0
2022-10-03T02:36:43.429Z,0
2022-10-03T02:37:59.600Z,0
2022-10-03T02:39:15.809Z,0
2022-10-03T02:40:31.988Z,0
2022-10-03T02:41:48.183Z,0
2022-10-03T02:43:03.382Z,0
2022-10-03T02:44:19.541Z,0
2022-10-03T02:45:35.760Z,0
2022-10-03T02:46:51.948Z,0
2022-10-03T02:48:08.141Z,0
2022-10-03T02:49:24.336Z,0
2022-10-03T02:50:40.517Z,0
2022-10-03T02:51:56.704Z,0
2022-10-03T02:53:12.882Z,0
2022-10-03T02:54:29.056Z,0
2022-10-03T02:55:45.238Z,0
2022-10-03T02:57:01.439Z,0
2022-10-03T02:58:17.623Z,0
2022-10-03T02:59:32.811Z,0
2022-10-03T03:00:49.000Z,0
2022-10-03T03:02:05.208Z,0
2022-10-03T03:03:21.388Z,0
2022-10-03T03:04:37.589Z,0
2022-10-03T03:05:53.770Z,0
2022-10-03T03:07:09.938Z,0
2022-10-03T03:08:26.149Z,0
2022-10-03T03:09:42.326Z,0
2022-10-03T03:10:58.526Z,0
2022-10-03T03:12:14.712Z,0
2022-10-03T03:13:30.899Z,0
2022-10-03T03:14:47.046Z,0
2022-10-03T03:16:02.278Z,0
2022-10-03T03:17:18.477Z,0
2022-10-03T03:18:34.656Z,0
2022-10-03T03:19:50.848Z,0
2022-10-03T03:21:07.014Z,0
2022-10-03T03:22:23.230Z,0
2022-10-03T03:23:39.405Z,0
2022-10-03T03:24:55.572Z,0
2022-10-03T03:26:11.754Z,0
2022-10-03T03:27:27.979Z,0
2022-10-03T03:28:44.155Z,0
2022-10-03T03:30:00.322Z,0
2022-10-03T03:31:16.528Z,0
2022-10-03T03:32:31.736Z,0
2022-10-03T03:33:47.926Z,0
2022-10-03T03:35:04.118Z,0
2022-10-03T03:36:20.289Z,0
2022-10-03T03:37:36.488Z,0
2022-10-03T03:38:52.643Z,0
2022-10-03T03:40:08.864Z,0
2022-10-03T03:41:25.051Z,0
2022-10-03T03:42:41.196Z,0
2022-10-03T03:43:57.415Z,0
2022-10-03T03:45:13.620Z,0
2022-10-03T03:46:29.769Z,0
2022-10-03T03:47:45.949Z,0
2022-10-03T03:49:01.159Z,0
2022-10-03T03:50:17.370Z,0
2022-10-03T03:51:33.556Z,0
2022-10-03T03:52:49.707Z,0
2022-10-03T03:54:05.928Z,0
2022-10-03T03:55:22.115Z,0
2022-10-03T03:56:38.310Z,0
2022-10-03T03:57:54.464Z,0
2022-10-03T03:59:10.695Z,0
2022-10-03T04:00:26.841Z,0
2022-10-03T04:01:43.069Z,0
2022-10-03T04:02:59.252Z,0
2022-10-03T04:04:15.442Z,0
2022-10-03T04:05:30.643Z,0
2022-10-03T04:06:46.834Z,0
2022-10-03T04:08:02.965Z,0
2022-10-03T04:09:19.208Z,0
2022-10-03T04:10:35.382Z,0
2022-10-03T04:11:51.571Z,0
2022-10-03T04:13:07.767Z,0
2022-10-03T04:14:23.949Z,0
2022-10-03T04:15:40.135Z,0
2022-10-03T04:16:56.323Z,0
2022-10-03T04:18:12.460Z,0
2022-10-03T04:19:28.698Z,0
2022-10-03T04:20:44.846Z,0
2022-10-03T04:22:00.089Z,0
2022-10-03T04:23:16.225Z,0
2022-10-03T04:24:32.461Z,0
2022-10-03T04:25:48.644Z,0
2022-10-03T04:27:04.838Z,0
2022-10-03T04:28:21.021Z,0
2022-10-03T04:29:37.214Z,0
2022-10-03T04:30:53.353Z,0
2022-10-03T04:32:09.592Z,0
2022-10-03T04:33:25.779Z,0
2022-10-03T04:34:41.000Z,0
2022-10-03T04:35:58.140Z,0
2022-10-03T04:37:14.337Z,0
2022-10-03T04:38:29.532Z,0
2022-10-03T04:39:45.728Z,0
2022-10-03T04:41:01.917Z,0
2022-10-03T04:42:18.061Z,0
2022-10-03T04:43:34.283Z,0
2022-10-03T04:44:50.484Z,0
2022-10-03T04:46:06.619Z,0
2022-10-03T04:47:22.810Z,0
2022-10-03T04:48:39.036Z,0
2022-10-03T04:49:55.171Z,4
2022-10-03T04:51:11.360Z,0
2022-10-03T04:52:27.606Z,4
2022-10-03T04:53:43.782Z,4
2022-10-03T04:54:58.946Z,4
2022-10-03T04:56:15.176Z,4
2022-10-03T04:57:31.364Z,4
2022-10-03T04:58:47.556Z,8
2022-10-03T05:00:03.735Z,8
2022-10-03T05:01:19.935Z,12
2022-10-03T05:02:36.115Z,16
2022-10-03T05:03:52.256Z,16
2022-10-03T05:05:08.498Z,20
2022-10-03T05:06:24.669Z,24
2022-10-03T05:07:40.810Z,20
2022-10-03T05:08:57.002Z,32
2022-10-03T05:10:13.196Z,36
2022-10-03T05:11:28.446Z,44
2022-10-03T05:12:44.635Z,52
2022-10-03T05:14:00.821Z,68
2022-10-03T05:15:16.996Z,60
2022-10-03T05:16:33.141Z,64
2022-10-03T05:17:49.374Z,64
2022-10-03T05:19:05.558Z,60
2022-10-03T05:20:21.693Z,68
2022-10-03T05:21:37.937Z,72
2022-10-03T05:22:54.136Z,84
2022-10-03T05:24:10.253Z,84
2022-10-03T05:25:26.500Z,92
2022-10-03T05:26:42.680Z,96
2022-10-03T05:27:57.838Z,112
2022-10-03T05:29:14.082Z,116
2022-10-03T05:30:30.273Z,148
2022-10-03T05:31:46.448Z,172
2022-10-03T05:33:02.633Z,160
2022-10-03T05:34:18.836Z,204
2022-10-03T05:35:35.015Z,216
2022-10-03T05:36:51.209Z,208
2022-10-03T05:38:07.386Z,192
2022-10-03T05:39:23.519Z,196
2022-10-03T05:40:39.766Z,212
2022-10-03T05:41:55.950Z,184
2022-10-03T05:43:12.141Z,180
2022-10-03T05:44:27.273Z,216
2022-10-03T05:45:43.480Z,188
2022-10-03T05:46:59.648Z,144
2022-10-03T05:48:15.901Z,208
2022-10-03T05:49:32.095Z,196
2022-10-03T05:50:48.285Z,236
2022-10-03T05:52:04.463Z,224
2022-10-03T05:53:20.652Z,212
2022-10-03T05:55:53.022Z,256
2022-10-03T05:57:09.218Z,292
2022-10-03T05:58:25.617Z,296
2022-10-03T05:59:41.803Z,380
2022-10-03T06:00:56.789Z,464
2022-10-03T06:02:13.190Z,500
2022-10-03T06:03:29.175Z,552
2022-10-03T06:04:45.347Z,608
2022-10-03T06:06:01.742Z,736
2022-10-03T06:07:17.720Z,696
2022-10-03T06:08:33.924Z,660
2022-10-03T06:09:50.112Z,784
2022-10-03T06:11:06.488Z,688
2022-10-03T06:12:22.477Z,788
2022-10-03T06:13:38.673Z,732
2022-10-03T06:14:55.051Z,620
2022-10-03T06:16:11.047Z,664
2022-10-03T06:17:26.246Z,744
2022-10-03T06:18:42.424Z,620
2022-10-03T06:19:58.625Z,736
2022-10-03T06:21:14.798Z,756
2022-10-03T06:22:31.001Z,688
2022-10-03T06:23:47.379Z,580
2022-10-03T06:25:03.363Z,560
2022-10-03T06:26:19.554Z,632
2022-10-03T06:27:35.746Z,540
2022-10-03T06:28:52.124Z,512
2022-10-03T06:30:08.118Z,516
2022-10-03T06:31:24.506Z,596
2022-10-03T06:32:40.700Z,800
2022-10-03T06:33:55.686Z,788
2022-10-03T06:35:12.081Z,1012
2022-10-03T06:36:28.272Z,836
2022-10-03T06:37:44.445Z,924
2022-10-03T06:39:00.439Z,804
2022-10-03T06:40:16.830Z,848
2022-10-03T06:41:32.813Z,744
2022-10-03T06:42:49.004Z,896
2022-10-03T06:44:05.200Z,896
2022-10-03T06:45:21.585Z,904
2022-10-03T06:46:37.575Z,864
2022-10-03T06:47:53.754Z,624
2022-10-03T06:49:10.137Z,816
2022-10-03T06:50:25.335Z,944
2022-10-03T06:51:41.336Z,892
2022-10-03T06:52:57.512Z,1020
2022-10-03T06:54:13.712Z,1112
2022-10-03T06:55:29.902Z,936
2022-10-03T06:56:46.074Z,1052
2022-10-03T06:58:01.288Z,988
2022-10-03T06:59:17.476Z,944
2022-10-03T07:00:33.861Z,968
2022-10-03T07:01:50.044Z,1112
2022-10-03T07:03:06.229Z,1244
2022-10-03T07:04:22.223Z,1216
2022-10-03T07:05:38.416Z,1292
2022-10-03T07:06:54.594Z,1264
2022-10-03T07:08:10.794Z,1144
2022-10-03T07:09:26.979Z,1492
2022-10-03T07:10:43.360Z,1068
2022-10-03T07:11:59.348Z,1284
2022-10-03T07:13:15.541Z,1524
2022-10-03T07:14:30.741Z,1564
2022-10-03T07:15:46.927Z,1520
2022-10-03T07:17:03.109Z,1704
2022-10-03T07:18:19.482Z,1228
2022-10-03T07:19:35.485Z,1500
2022-10-03T07:20:51.867Z,1008
2022-10-03T07:22:07.861Z,1184
2022-10-03T07:23:24.042Z,1712
2022-10-03T07:24:40.229Z,1428
2022-10-03T07:25:56.615Z,1560
2022-10-03T07:27:12.807Z,1536
2022-10-03T07:28:28.807Z,1952
2022-10-03T07:29:44.983Z,1652
2022-10-03T07:31:00.371Z,1136
2022-10-03T07:32:16.381Z,1544
2022-10-03T07:33:32.756Z,1408
2022-10-03T07:34:48.760Z,1228
2022-10-03T07:36:04.932Z,1620
2022-10-03T07:37:21.121Z,1644
2022-10-03T07:38:37.315Z,1568
2022-10-03T07:39:53.694Z,1772
2022-10-03T07:42:25.877Z,1764
2022-10-03T07:43:42.068Z,1668
2022-10-03T07:44:58.439Z,2368
2022-10-03T07:46:14.625Z,1880
2022-10-03T07:47:29.822Z,2404
2022-10-03T07:48:45.822Z,1936
2022-10-03T07:50:02.008Z,2364
2022-10-03T07:51:18.203Z,1776
2022-10-03T07:52:34.570Z,2060
2022-10-03T07:53:50.583Z,1764
2022-10-03T07:55:06.768Z,1936
2022-10-03T07:56:23.138Z,1852
2022-10-03T07:57:39.145Z,1988
2022-10-03T07:58:55.334Z,2276
2022-10-03T08:00:11.513Z,1980
2022-10-03T08:01:27.701Z,1712
2022-10-03T08:02:43.895Z,2048
2022-10-03T08:03:59.273Z,1728
2022-10-03T08:05:15.450Z,1564
2022-10-03T08:06:31.468Z,1176
2022-10-03T08:07:47.654Z,1144
2022-10-03T08:09:03.844Z,1076
2022-10-03T08:10:20.033Z,1336
2022-10-03T08:11:36.388Z,1448
2022-10-03T08:12:52.581Z,1928
2022-10-03T08:14:08.594Z,2188
2022-10-03T08:15:24.780Z,1248
2022-10-03T08:16:40.968Z,1632
2022-10-03T08:17:57.145Z,1204
2022-10-03T08:19:13.507Z,1460
2022-10-03T08:20:28.540Z,1824
2022-10-03T08:21:44.727Z,2064
2022-10-03T08:23:00.912Z,2252
2022-10-03T08:24:17.094Z,1736
2022-10-03T08:25:33.284Z,2320
2022-10-03T08:26:49.647Z,3020
2022-10-03T08:28:05.669Z,2688
2022-10-03T08:29:21.845Z,2728
2022-10-03T08:30:38.040Z,2052
2022-10-03T08:31:54.233Z,1800
2022-10-03T08:33:10.596Z,2200
2022-10-03T08:34:26.774Z,2080
2022-10-03T08:35:42.785Z,1836
2022-10-03T08:36:57.982Z,2264
2022-10-03T08:38:14.178Z,2172
2022-10-03T08:39:30.361Z,1928
2022-10-03T08:40:46.552Z,1736
2022-10-03T08:42:02.909Z,2268
2022-10-03T08:43:18.938Z,2216
2022-10-03T08:44:35.119Z,2256
2022-10-03T08:45:51.298Z,2240
2022-10-03T08:47:07.500Z,1932
2022-10-03T08:48:23.668Z,1972
2022-10-03T08:49:39.861Z,1980
2022-10-03T08:50:56.061Z,2108
2022-10-03T08:52:12.410Z,2952
2022-10-03T08:53:27.450Z,2416
2022-10-03T08:54:43.636Z,2080
2022-10-03T08:55:59.981Z,1964
2022-10-03T08:57:16.171Z,2088
2022-10-03T08:58:32.195Z,2216
2022-10-03T08:59:48.371Z,2432
2022-10-03T09:01:04.564Z,2800
2022-10-03T09:02:20.753Z,3356
2022-10-03T09:03:36.947Z,2912
2022-10-03T09:04:53.293Z,3536
2022-10-03T09:06:09.324Z,3916
2022-10-03T09:07:25.506Z,2952
2022-10-03T09:08:41.863Z,3740
2022-10-03T09:09:57.055Z,3576
2022-10-03T09:11:13.076Z,3388
2022-10-03T09:12:29.433Z,3312
2022-10-03T09:13:45.448Z,4116
2022-10-03T09:15:01.648Z,3476
2022-10-03T09:16:17.823Z,2492
2022-10-03T09:17:34.177Z,3796
2022-10-03T09:18:50.214Z,4128
2022-10-03T09:20:06.561Z,4468
2022-10-03T09:21:22.752Z,2672
2022-10-03T09:22:38.762Z,2484
2022-10-03T09:23:54.950Z,2916
2022-10-03T09:25:11.146Z,1812
2022-10-03T09:26:27.326Z,3460
2022-10-03T09:27:42.701Z,3596
2022-10-03T09:28:58.884Z,3584
2022-10-03T09:30:14.906Z,3696
2022-10-03T09:31:31.094Z,4280
2022-10-03T09:32:47.447Z,4012
2022-10-03T09:34:03.470Z,3456
2022-10-03T09:35:19.813Z,2688
2022-10-03T09:36:35.838Z,2616
2022-10-03T09:37:52.039Z,2496
2022-10-03T09:39:08.225Z,3600
2022-10-03T09:40:24.399Z,3424
2022-10-03T09:41:40.587Z,4372
2022-10-03T09:42:56.948Z,3588
2022-10-03T09:44:11.988Z,4872
2022-10-03T09:45:28.172Z,2980
2022-10-03T09:46:44.513Z,4476
2022-10-03T09:48:00.553Z,5480
2022-10-03T09:49:16.729Z,5844
2022-10-03T09:50:32.914Z,3848
2022-10-03T09:51:49.101Z,4564
2022-10-03T09:53:05.299Z,4304
2022-10-03T09:54:21.476Z,3512
2022-10-03T09:55:37.668Z,4172
2022-10-03T09:56:53.860Z,4816
2022-10-03T09:58:10.212Z,2908
2022-10-03T09:59:26.236Z,4940
2022-10-03T10:00:41.428Z,4932
2022-10-03T10:01:57.616Z,3928
2022-10-03T10:03:13.960Z,6692
2022-10-03T10:04:30.007Z,5068
2022-10-03T10:05:46.192Z,3576
2022-10-03T10:07:02.373Z,3628
2022-10-03T10:08:18.717Z,3504
2022-10-03T10:09:34.749Z,3092
2022-10-03T10:10:50.935Z,2768
2022-10-03T10:12:07.270Z,2252
2022-10-03T10:13:23.318Z,2824
2022-10-03T10:14:39.487Z,2216
2022-10-03T10:15:55.675Z,3056
2022-10-03T10:17:10.896Z,2872
2022-10-03T10:18:27.219Z,2892
2022-10-03T10:19:43.267Z,2368
2022-10-03T10:20:59.605Z,2844
2022-10-03T10:22:15.645Z,4476
2022-10-03T10:23:31.816Z,5624
2022-10-03T10:24:48.154Z,5132
2022-10-03T10:26:04.189Z,4396
2022-10-03T10:27:20.381Z,5508
2022-10-03T10:28:36.725Z,7064
2022-10-03T10:29:52.757Z,5992
2022-10-03T10:31:08.957Z,4752
2022-10-03T10:32:25.140Z,6800
2022-10-03T10:33:40.339Z,6304
2022-10-03T10:34:56.527Z,5604
2022-10-03T10:36:12.861Z,6988
2022-10-03T10:37:28.905Z,4856
2022-10-03T10:38:45.082Z,2540
2022-10-03T10:40:01.283Z,6128
2022-10-03T10:41:17.463Z,2744
2022-10-03T10:42:33.656Z,5912
2022-10-03T10:43:49.991Z,3920
2022-10-03T10:45:06.034Z,3508
2022-10-03T10:46:22.219Z,5100
2022-10-03T10:47:38.403Z,7648
2022-10-03T10:48:54.583Z,7564
2022-10-03T10:50:09.795Z,6620
2022-10-03T10:51:25.980Z,7392
2022-10-03T10:52:42.166Z,4836
2022-10-03T10:53:58.357Z,4996
2022-10-03T10:55:14.547Z,5268
2022-10-03T10:56:30.719Z,1900
2022-10-03T10:57:46.905Z,4148
2022-10-03T10:59:03.251Z,6904
2022-10-03T11:00:19.295Z,2840
2022-10-03T11:01:35.471Z,8392
2022-10-03T11:02:51.802Z,4248
2022-10-03T11:04:07.853Z,5016
2022-10-03T11:05:24.045Z,8280
2022-10-03T11:06:39.246Z,6772
2022-10-03T11:07:55.420Z,5224
2022-10-03T11:09:11.624Z,3704
2022-10-03T11:10:27.801Z,4276
2022-10-03T11:11:43.987Z,3672
2022-10-03T11:12:59.193Z,3888
2022-10-03T11:14:15.530Z,3372
2022-10-03T11:15:31.573Z,2704
2022-10-03T11:16:47.767Z,3924
2022-10-03T11:18:03.957Z,5200
2022-10-03T11:19:20.133Z,5064
2022-10-03T11:20:36.324Z,2604
2022-10-03T11:21:52.510Z,4576
2022-10-03T11:23:08.702Z,9168
2022-10-03T11:24:24.878Z,6028
2022-10-03T11:25:41.072Z,4988
2022-10-03T11:26:57.254Z,4780
2022-10-03T11:28:13.599Z,5864
2022-10-03T11:29:28.788Z,10548
2022-10-03T11:30:44.833Z,9848
2022-10-03T11:32:01.031Z,11292
2022-10-03T11:33:17.228Z,8124
2022-10-03T11:34:33.539Z,8420
2022-10-03T11:35:49.599Z,7512
2022-10-03T11:37:05.918Z,5364
2022-10-03T11:38:21.973Z,4584
2022-10-03T11:39:38.170Z,4148
2022-10-03T11:40:54.491Z,3596
2022-10-03T11:42:10.674Z,1972
2022-10-03T11:43:26.723Z,1456
2022-10-03T11:44:43.066Z,1244
2022-10-03T11:45:58.123Z,1416
2022-10-03T11:47:14.313Z,2112
2022-10-03T11:48:30.504Z,2780
2022-10-03T11:49:46.821Z,3344
2022-10-03T11:51:02.878Z,4536
2022-10-03T11:52:19.206Z,5588
2022-10-03T11:53:35.259Z,7752
2022-10-03T11:54:51.449Z,8900
2022-10-03T11:56:07.769Z,12816
2022-10-03T11:57:23.952Z,6124
2022-10-03T11:58:40.012Z,5428
2022-10-03T11:59:56.342Z,5216
2022-10-03T12:01:12.387Z,4540
2022-10-03T12:02:27.607Z,5508
2022-10-03T12:03:43.795Z,5128
2022-10-03T12:04:59.974Z,4704
2022-10-03T12:06:16.305Z,5680
2022-10-03T12:07:32.491Z,5260
2022-10-03T12:08:48.537Z,5960
2022-10-03T12:10:04.728Z,9580
2022-10-03T12:11:20.922Z,18908
2022-10-03T12:12:37.105Z,11044
2022-10-03T12:13:53.292Z,14060
2022-10-03T12:15:09.494Z,12448
2022-10-03T12:16:25.665Z,23552
2022-10-03T12:17:41.855Z,11416
2022-10-03T12:18:57.075Z,10792
2022-10-03T12:20:13.255Z,18024
2022-10-03T12:21:29.585Z,17140
2022-10-03T12:22:45.758Z,13428
2022-10-03T12:24:01.834Z,12360
2022-10-03T12:25:18.022Z,21344
2022-10-03T12:26:34.207Z,57248
2022-10-03T12:27:50.402Z,51904
2022-10-03T12:29:06.576Z,73984
2022-10-03T12:30:22.906Z,58016
2022-10-03T12:31:39.089Z,77024
2022-10-03T12:32:55.152Z,76352
2022-10-03T12:34:11.330Z,13388
2022-10-03T12:35:26.538Z,10000
2022-10-03T12:36:42.730Z,8180
2022-10-03T12:37:58.928Z,4336
2022-10-03T12:39:15.113Z,6684
2022-10-03T12:40:31.304Z,7156
2022-10-03T12:41:47.476Z,9952
2022-10-03T12:43:03.672Z,28800
2022-10-03T12:44:19.864Z,11252
2022-10-03T12:45:36.179Z,51264
2022-10-03T12:46:52.249Z,10180
2022-10-03T12:48:08.432Z,12908
2022-10-03T12:49:24.613Z,16816
2022-10-03T12:50:40.802Z,66176
2022-10-03T12:51:56.018Z,27936
2022-10-03T12:53:12.318Z,63648
2022-10-03T12:54:28.509Z,66080
2022-10-03T12:55:44.574Z,12484
2022-10-03T12:57:00.759Z,7660
2022-10-03T12:58:16.957Z,6092
2022-10-03T12:59:33.140Z,5896
2022-10-03T13:00:49.327Z,7120
2022-10-03T13:02:05.524Z,7776
2022-10-03T13:03:21.842Z,29600
2022-10-03T13:04:37.906Z,11356
2022-10-03T13:05:54.087Z,14512
2022-10-03T13:07:10.271Z,10284
2022-10-03T13:08:25.605Z,8284
2022-10-03T13:09:41.800Z,5808
2022-10-03T13:10:57.872Z,7460
2022-10-03T13:12:14.049Z,5708
2022-10-03T13:13:30.238Z,5712
2022-10-03T13:14:46.427Z,4448
2022-10-03T13:16:02.736Z,3396
2022-10-03T13:17:18.936Z,1740
2022-10-03T13:18:34.993Z,4656
2022-10-03T13:19:51.184Z,3616
2022-10-03T13:21:07.379Z,4548
2022-10-03T13:22:23.695Z,3408
2022-10-03T13:23:39.876Z,2452
2022-10-03T13:24:54.966Z,2664
2022-10-03T13:26:11.148Z,2656
2022-10-03T13:27:27.342Z,2752
2022-10-03T13:28:43.525Z,2180
2022-10-03T13:29:59.825Z,3500
2022-10-03T13:31:16.024Z,5464
2022-10-03T13:32:32.100Z,6372
2022-10-03T13:33:48.402Z,6768
2022-10-03T13:35:04.596Z,5596
2022-10-03T13:36:20.779Z,4092
2022-10-03T13:37:36.844Z,3944
2022-10-03T13:38:53.151Z,5596
2022-10-03T13:40:09.239Z,6516
2022-10-03T13:41:24.444Z,6572
2022-10-03T13:42:40.623Z,4232
2022-10-03T13:43:56.925Z,2808
2022-10-03T13:45:13.114Z,2820
2022-10-03T13:46:29.307Z,4776
2022-10-03T13:47:45.390Z,6188
2022-10-03T13:49:01.572Z,5380
2022-10-03T13:50:17.755Z,4632
2022-10-03T13:51:33.955Z,4240
2022-10-03T13:52:50.140Z,3632
2022-10-03T13:54:06.320Z,3948
2022-10-03T13:55:22.526Z,4056
2022-10-03T13:56:38.700Z,3124
2022-10-03T13:57:54.021Z,2060
2022-10-03T13:59:10.221Z,1852
2022-10-03T14:00:26.401Z,3144
2022-10-03T14:01:42.486Z,3584
2022-10-03T14:02:58.664Z,4004
2022-10-03T14:04:15.053Z,4148
2022-10-03T14:05:31.044Z,2980
2022-10-03T14:06:47.227Z,2364
2022-10-03T14:08:03.638Z,3104
2022-10-03T14:09:19.814Z,1972
2022-10-03T14:10:36.013Z,3468
2022-10-03T14:11:52.207Z,4392
2022-10-03T14:13:08.399Z,3660
2022-10-03T14:14:23.603Z,3148
2022-10-03T14:15:39.783Z,2496
2022-10-03T14:16:55.000Z,2060
2022-10-03T14:18:12.176Z,3328
2022-10-03T14:19:28.365Z,2140
2022-10-03T14:20:44.554Z,2152
2022-10-03T14:22:00.744Z,2924
2022-10-03T14:23:16.922Z,2892
2022-10-03T14:24:33.095Z,2696
2022-10-03T14:25:49.299Z,2160
2022-10-03T14:27:05.499Z,2352
2022-10-03T14:28:21.674Z,2316
2022-10-03T14:29:37.866Z,1436
2022-10-03T14:30:53.071Z,1416
2022-10-03T14:32:09.267Z,1392
2022-10-03T14:33:25.461Z,1392
2022-10-03T14:34:41.619Z,1388
2022-10-03T14:35:57.842Z,1424
2022-10-03T14:37:14.029Z,1588
2022-10-03T14:38:30.216Z,2172
2022-10-03T14:39:46.408Z,2088
2022-10-03T14:41:02.589Z,1500
2022-10-03T14:42:18.787Z,920
2022-10-03T14:43:34.972Z,764
2022-10-03T14:44:51.152Z,764
2022-10-03T14:46:07.354Z,820
2022-10-03T14:47:22.561Z,924
2022-10-03T14:48:38.734Z,1600
2022-10-03T14:49:54.924Z,3040
2022-10-03T14:51:11.117Z,3220
2022-10-03T14:52:27.312Z,2996
2022-10-03T14:53:43.502Z,2784
2022-10-03T14:54:59.664Z,2968
2022-10-03T14:56:15.881Z,2912
2022-10-03T14:57:32.073Z,2628
2022-10-03T14:58:48.247Z,2768
2022-10-03T15:00:04.455Z,2872
2022-10-03T15:01:20.630Z,2540
2022-10-03T15:02:36.822Z,2276
2022-10-03T15:03:51.994Z,1952
2022-10-03T15:05:08.225Z,1416
2022-10-03T15:06:24.416Z,1104
2022-10-03T15:07:40.564Z,1068
2022-10-03T15:08:56.790Z,1012
2022-10-03T15:10:12.984Z,972
2022-10-03T15:11:29.147Z,960
2022-10-03T15:12:45.362Z,900
2022-10-03T15:14:01.514Z,1108
2022-10-03T15:15:17.709Z,1304
2022-10-03T15:16:33.917Z,1520
2022-10-03T15:17:50.078Z,1644
2022-10-03T15:19:06.299Z,1684
2022-10-03T15:20:21.495Z,1692
2022-10-03T15:21:37.684Z,1696
2022-10-03T15:22:53.889Z,1804
2022-10-03T15:24:10.063Z,1844
2022-10-03T15:25:26.229Z,1688
2022-10-03T15:26:42.441Z,1528
2022-10-03T15:27:57.658Z,1728
2022-10-03T15:29:13.858Z,1688
2022-10-03T15:30:30.002Z,1468
2022-10-03T15:31:46.219Z,1356
2022-10-03T15:33:02.409Z,1300
2022-10-03T15:34:18.597Z,1192
2022-10-03T15:35:34.798Z,1268
2022-10-03T15:36:50.992Z,1172
2022-10-03T15:38:07.171Z,1116
2022-10-03T15:39:23.332Z,1004
2022-10-03T15:40:39.556Z,808
2022-10-03T15:41:55.701Z,572
2022-10-03T15:43:11.921Z,440
2022-10-03T15:44:27.094Z,408
2022-10-03T15:45:43.334Z,352
2022-10-03T15:46:59.521Z,304
2022-10-03T15:48:15.666Z,260
2022-10-03T15:49:31.897Z,236
2022-10-03T15:50:48.044Z,232
2022-10-03T15:52:04.276Z,216
2022-10-03T15:53:20.433Z,196
2022-10-03T15:54:36.648Z,172
2022-10-03T15:55:52.812Z,152
2022-10-03T15:57:08.992Z,144
2022-10-03T15:58:25.218Z,136
2022-10-03T15:59:41.412Z,120
2022-10-03T16:00:56.609Z,104
2022-10-03T16:02:12.791Z,92
2022-10-03T16:03:28.994Z,92
2022-10-03T16:04:45.188Z,92
2022-10-03T16:06:01.364Z,80
2022-10-03T16:07:17.527Z,64
2022-10-03T16:08:33.752Z,68
2022-10-03T16:09:49.936Z,72
2022-10-03T16:11:06.090Z,68
2022-10-03T16:12:22.306Z,68
2022-10-03T16:13:38.492Z,64
2022-10-03T16:14:54.684Z,80
2022-10-03T16:16:10.879Z,84
2022-10-03T16:17:26.086Z,92
2022-10-03T16:18:42.242Z,112
2022-10-03T16:19:58.457Z,96
2022-10-03T16:21:14.609Z,84
2022-10-03T16:22:30.841Z,68
2022-10-03T16:23:47.031Z,60
2022-10-03T16:25:03.225Z,44
2022-10-03T16:26:19.400Z,36
2022-10-03T16:27:35.603Z,28
2022-10-03T16:28:51.749Z,28
2022-10-03T16:30:07.981Z,32
2022-10-03T16:31:24.164Z,28
2022-10-03T16:32:40.344Z,20
2022-10-03T16:33:55.000Z,20
2022-10-03T16:35:11.752Z,20
2022-10-03T16:36:27.889Z,20
2022-10-03T16:37:44.130Z,20
2022-10-03T16:39:00.315Z,24
2022-10-03T16:40:16.456Z,24
2022-10-03T16:41:32.647Z,20
2022-10-03T16:42:48.874Z,20
2022-10-03T16:44:05.065Z,20
2022-10-03T16:45:21.262Z,16
2022-10-03T16:46:37.449Z,12
2022-10-03T16:47:53.638Z,12
2022-10-03T16:49:09.781Z,8
2022-10-03T16:50:25.028Z,8
2022-10-03T16:51:41.184Z,8
2022-10-03T16:52:57.358Z,4
2022-10-03T16:54:13.593Z,4
2022-10-03T16:55:29.789Z,4
2022-10-03T16:56:45.932Z,0
2022-10-03T16:58:02.118Z,0
2022-10-03T16:59:18.346Z,0
2022-10-03T17:00:34.551Z,0
2022-10-03T17:01:50.734Z,0
2022-10-03T17:03:06.920Z,0
2022-10-03T17:04:23.114Z,0
2022-10-03T17:05:39.298Z,0
2022-10-03T17:06:54.450Z,0
2022-10-03T17:08:10.644Z,0
2022-10-03T17:09:26.882Z,0
2022-10-03T17:10:43.025Z,0
2022-10-03T17:11:59.208Z,0
2022-10-03T17:13:15.459Z,0
2022-10-03T17:14:31.636Z,0
2022-10-03T17:15:47.834Z,0
2022-10-03T17:17:03.958Z,0
2022-10-03T17:18:20.207Z,0
2022-10-03T17:19:36.346Z,0
2022-10-03T17:20:52.593Z,0
2022-10-03T17:22:08.778Z,0
2022-10-03T17:23:23.936Z,0
2022-10-03T17:24:40.164Z,0
2022-10-03T17:25:56.358Z,0
2022-10-03T17:27:12.496Z,0
2022-10-03T17:28:28.742Z,0
2022-10-03T17:29:44.923Z,0
2022-10-03T17:31:01.061Z,0
2022-10-03T17:32:17.256Z,0
2022-10-03T17:33:33.489Z,0
2022-10-03T17:34:49.629Z,0
2022-10-03T17:36:05.817Z,0
2022-10-03T17:37:22.050Z,0